sensor_id;sensor_type;location;lat;lon;timestamp;pressure;altitude;pressure_sealevel;temperature;humidity
23303;BME280;11820;48.738;9.092;2023-08-21T00:00:09;96804.34;;;25.78;100.00
23303;BME280;11820;48.738;9.092;2023-08-21T00:02:35;96806.94;;;25.88;100.00
23303;BME280;11820;48.738;9.092;2023-08-21T00:05:00;96801.31;;;25.94;100.00
23303;BME280;11820;48.738;9.092;2023-08-21T00:07:25;96810.66;;;25.82;100.00
23303;BME280;11820;48.738;9.092;2023-08-21T00:09:51;96809.09;;;25.81;100.00
23303;BME280;11820;48.738;9.092;2023-08-21T00:12:16;96808.31;;;25.80;100.00
23303;BME280;11820;48.738;9.092;2023-08-21T00:14:42;96796.84;;;25.90;100.00
23303;BME280;11820;48.738;9.092;2023-08-21T00:17:07;96803.22;;;25.89;100.00
23303;BME280;11820;48.738;9.092;2023-08-21T00:19:33;96806.72;;;25.79;100.00
23303;BME280;11820;48.738;9.092;2023-08-21T00:22:00;96802.59;;;25.58;100.00
23303;BME280;11820;48.738;9.092;2023-08-21T00:24:25;96799.66;;;25.60;100.00
23303;BME280;11820;48.738;9.092;2023-08-21T00:26:51;96796.53;;;25.53;100.00
23303;BME280;11820;48.738;9.092;2023-08-21T00:29:16;96795.75;;;25.52;100.00
23303;BME280;11820;48.738;9.092;2023-08-21T00:31:41;96793.56;;;25.64;100.00
23303;BME280;11820;48.738;9.092;2023-08-21T00:34:07;96793.78;;;25.73;100.00
23303;BME280;11820;48.738;9.092;2023-08-21T00:36:32;96798.56;;;25.71;100.00
23303;BME280;11820;48.738;9.092;2023-08-21T00:38:57;96789.50;;;25.77;100.00
23303;BME280;11820;48.738;9.092;2023-08-21T00:41:23;96794.41;;;25.55;100.00
23303;BME280;11820;48.738;9.092;2023-08-21T00:43:49;96788.59;;;25.53;100.00
23303;BME280;11820;48.738;9.092;2023-08-21T00:46:14;96789.31;;;25.15;100.00
23303;BME280;11820;48.738;9.092;2023-08-21T00:48:40;96789.03;;;25.21;100.00
23303;BME280;11820;48.738;9.092;2023-08-21T00:51:06;96781.53;;;25.38;100.00
23303;BME280;11820;48.738;9.092;2023-08-21T00:53:32;96784.94;;;25.44;100.00
23303;BME280;11820;48.738;9.092;2023-08-21T00:55:58;96787.16;;;25.27;100.00
23303;BME280;11820;48.738;9.092;2023-08-21T00:58:23;96781.03;;;25.26;100.00
23303;BME280;11820;48.738;9.092;2023-08-21T01:00:49;96778.66;;;25.30;100.00
23303;BME280;11820;48.738;9.092;2023-08-21T01:03:17;96779.72;;;25.29;100.00
23303;BME280;11820;48.738;9.092;2023-08-21T01:05:43;96778.13;;;25.28;100.00
23303;BME280;11820;48.738;9.092;2023-08-21T01:08:15;96777.41;;;25.07;100.00
23303;BME280;11820;48.738;9.092;2023-08-21T01:10:54;96778.75;;;25.05;100.00
23303;BME280;11820;48.738;9.092;2023-08-21T01:13:34;96775.00;;;25.16;100.00
23303;BME280;11820;48.738;9.092;2023-08-21T01:16:04;96779.22;;;25.12;100.00
23303;BME280;11820;48.738;9.092;2023-08-21T01:18:32;96775.31;;;25.04;100.00
23303;BME280;11820;48.738;9.092;2023-08-21T01:20:59;96779.34;;;24.87;100.00
23303;BME280;11820;48.738;9.092;2023-08-21T01:23:36;96780.91;;;24.88;100.00
23303;BME280;11820;48.738;9.092;2023-08-21T01:26:03;96773.78;;;24.88;100.00
23303;BME280;11820;48.738;9.092;2023-08-21T01:28:29;96790.69;;;24.92;100.00
23303;BME280;11820;48.738;9.092;2023-08-21T01:31:08;96784.91;;;24.86;100.00
23303;BME280;11820;48.738;9.092;2023-08-21T01:33:42;96784.66;;;24.82;100.00
23303;BME280;11820;48.738;9.092;2023-08-21T01:36:09;96788.72;;;24.55;100.00
23303;BME280;11820;48.738;9.092;2023-08-21T01:38:35;96778.84;;;24.75;100.00
23303;BME280;11820;48.738;9.092;2023-08-21T01:41:01;96781.03;;;24.63;100.00
23303;BME280;11820;48.738;9.092;2023-08-21T01:43:27;96777.31;;;24.64;100.00
23303;BME280;11820;48.738;9.092;2023-08-21T01:45:52;96773.59;;;24.65;100.00
23303;BME280;11820;48.738;9.092;2023-08-21T01:48:18;96776.72;;;24.77;100.00
23303;BME280;11820;48.738;9.092;2023-08-21T01:50:43;96775.91;;;24.87;100.00
23303;BME280;11820;48.738;9.092;2023-08-21T01:53:08;96773.31;;;24.72;100.00
23303;BME280;11820;48.738;9.092;2023-08-21T01:55:34;96777.00;;;24.81;100.00
23303;BME280;11820;48.738;9.092;2023-08-21T01:57:59;96780.66;;;24.89;100.00
23303;BME280;11820;48.738;9.092;2023-08-21T02:00:24;96766.16;;;24.77;100.00
23303;BME280;11820;48.738;9.092;2023-08-21T02:02:50;96772.47;;;24.81;100.00
23303;BME280;11820;48.738;9.092;2023-08-21T02:05:15;96772.75;;;24.75;100.00
23303;BME280;11820;48.738;9.092;2023-08-21T02:07:40;96767.47;;;24.75;100.00
23303;BME280;11820;48.738;9.092;2023-08-21T02:10:06;96769.56;;;24.83;100.00
23303;BME280;11820;48.738;9.092;2023-08-21T02:12:31;96770.06;;;24.89;100.00
23303;BME280;11820;48.738;9.092;2023-08-21T02:14:57;96770.13;;;24.75;100.00
23303;BME280;11820;48.738;9.092;2023-08-21T02:17:26;96771.38;;;24.87;100.00
23303;BME280;11820;48.738;9.092;2023-08-21T02:19:51;96768.78;;;24.82;100.00
23303;BME280;11820;48.738;9.092;2023-08-21T02:22:16;96771.19;;;24.69;100.00
23303;BME280;11820;48.738;9.092;2023-08-21T02:24:42;96765.91;;;24.64;100.00
23303;BME280;11820;48.738;9.092;2023-08-21T02:27:07;96775.16;;;24.76;100.00
23303;BME280;11820;48.738;9.092;2023-08-21T02:29:32;96772.78;;;24.50;100.00
23303;BME280;11820;48.738;9.092;2023-08-21T02:31:58;96777.84;;;24.41;100.00
23303;BME280;11820;48.738;9.092;2023-08-21T02:34:24;96777.84;;;24.36;100.00
23303;BME280;11820;48.738;9.092;2023-08-21T02:36:49;96777.84;;;24.51;100.00
23303;BME280;11820;48.738;9.092;2023-08-21T02:39:14;96780.72;;;24.50;100.00
23303;BME280;11820;48.738;9.092;2023-08-21T02:41:40;96772.28;;;24.48;100.00
23303;BME280;11820;48.738;9.092;2023-08-21T02:44:05;96784.72;;;24.47;100.00
23303;BME280;11820;48.738;9.092;2023-08-21T02:46:31;96783.69;;;24.38;100.00
23303;BME280;11820;48.738;9.092;2023-08-21T02:48:58;96778.16;;;24.25;100.00
23303;BME280;11820;48.738;9.092;2023-08-21T02:51:23;96786.88;;;24.05;100.00
23303;BME280;11820;48.738;9.092;2023-08-21T02:53:49;96781.56;;;24.25;100.00
23303;BME280;11820;48.738;9.092;2023-08-21T02:56:14;96777.09;;;24.16;100.00
23303;BME280;11820;48.738;9.092;2023-08-21T02:58:39;96792.69;;;24.17;100.00
23303;BME280;11820;48.738;9.092;2023-08-21T03:01:05;96781.06;;;24.03;100.00
23303;BME280;11820;48.738;9.092;2023-08-21T03:03:30;96778.41;;;23.98;100.00
23303;BME280;11820;48.738;9.092;2023-08-21T03:05:58;96783.72;;;24.13;100.00
23303;BME280;11820;48.738;9.092;2023-08-21T03:08:23;96778.44;;;23.93;100.00
23303;BME280;11820;48.738;9.092;2023-08-21T03:10:48;96783.19;;;23.91;100.00
23303;BME280;11820;48.738;9.092;2023-08-21T03:13:14;96783.16;;;24.01;100.00
23303;BME280;11820;48.738;9.092;2023-08-21T03:15:39;96781.06;;;24.03;100.00
23303;BME280;11820;48.738;9.092;2023-08-21T03:18:06;96784.75;;;23.92;100.00
23303;BME280;11820;48.738;9.092;2023-08-21T03:20:31;96785.25;;;23.69;100.00
23303;BME280;11820;48.738;9.092;2023-08-21T03:22:56;96786.34;;;23.93;100.00
23303;BME280;11820;48.738;9.092;2023-08-21T03:25:22;96776.03;;;23.97;100.00
23303;BME280;11820;48.738;9.092;2023-08-21T03:27:47;96784.19;;;23.80;100.00
23303;BME280;11820;48.738;9.092;2023-08-21T03:30:14;96785.81;;;23.86;100.00
23303;BME280;11820;48.738;9.092;2023-08-21T03:32:40;96776.78;;;23.77;100.00
23303;BME280;11820;48.738;9.092;2023-08-21T03:35:06;96781.00;;;23.73;100.00
23303;BME280;11820;48.738;9.092;2023-08-21T03:37:31;96778.63;;;23.72;100.00
23303;BME280;11820;48.738;9.092;2023-08-21T03:39:56;96778.13;;;23.75;100.00
23303;BME280;11820;48.738;9.092;2023-08-21T03:42:22;96780.75;;;23.70;100.00
23303;BME280;11820;48.738;9.092;2023-08-21T03:44:47;96776.25;;;23.80;100.00
23303;BME280;11820;48.738;9.092;2023-08-21T03:47:15;96786.31;;;23.83;100.00
23303;BME280;11820;48.738;9.092;2023-08-21T03:49:41;96783.41;;;23.75;100.00
23303;BME280;11820;48.738;9.092;2023-08-21T03:52:06;96784.19;;;23.65;100.00
23303;BME280;11820;48.738;9.092;2023-08-21T03:54:31;96787.34;;;23.67;100.00
23303;BME280;11820;48.738;9.092;2023-08-21T03:56:57;96791.59;;;23.63;100.00
23303;BME280;11820;48.738;9.092;2023-08-21T03:59:22;96790.50;;;23.54;100.00
23303;BME280;11820;48.738;9.092;2023-08-21T04:01:49;96800.00;;;23.55;100.00
23303;BME280;11820;48.738;9.092;2023-08-21T04:04:14;96795.78;;;23.54;100.00
23303;BME280;11820;48.738;9.092;2023-08-21T04:06:39;96798.97;;;23.71;100.00
23303;BME280;11820;48.738;9.092;2023-08-21T04:09:05;96802.16;;;23.63;100.00
23303;BME280;11820;48.738;9.092;2023-08-21T04:11:32;96801.56;;;23.46;100.00
23303;BME280;11820;48.738;9.092;2023-08-21T04:13:58;96804.16;;;23.31;100.00
23303;BME280;11820;48.738;9.092;2023-08-21T04:16:24;96799.72;;;23.42;100.00
23303;BME280;11820;48.738;9.092;2023-08-21T04:18:49;96811.38;;;23.56;100.00
23303;BME280;11820;48.738;9.092;2023-08-21T04:21:15;96811.59;;;23.39;100.00
23303;BME280;11820;48.738;9.092;2023-08-21T04:23:40;96806.31;;;23.39;100.00
23303;BME280;11820;48.738;9.092;2023-08-21T04:26:05;96811.56;;;23.29;100.00
23303;BME280;11820;48.738;9.092;2023-08-21T04:28:33;96813.72;;;23.42;100.00
23303;BME280;11820;48.738;9.092;2023-08-21T04:30:59;96815.28;;;23.38;100.00
23303;BME280;11820;48.738;9.092;2023-08-21T04:33:25;96819.00;;;23.37;100.00
23303;BME280;11820;48.738;9.092;2023-08-21T04:35:51;96812.38;;;23.35;100.00
23303;BME280;11820;48.738;9.092;2023-08-21T04:38:17;96822.91;;;23.30;100.00
23303;BME280;11820;48.738;9.092;2023-08-21T04:40:42;96820.16;;;23.10;100.00
23303;BME280;11820;48.738;9.092;2023-08-21T04:43:08;96823.69;;;23.20;100.00
23303;BME280;11820;48.738;9.092;2023-08-21T04:45:33;96820.06;;;23.51;100.00
23303;BME280;11820;48.738;9.092;2023-08-21T04:47:58;96811.06;;;23.37;100.00
23303;BME280;11820;48.738;9.092;2023-08-21T04:50:23;96817.44;;;23.56;100.00
23303;BME280;11820;48.738;9.092;2023-08-21T04:52:49;96814.78;;;23.41;100.00
23303;BME280;11820;48.738;9.092;2023-08-21T04:55:15;96816.91;;;23.54;100.00
23303;BME280;11820;48.738;9.092;2023-08-21T04:57:41;96814.78;;;23.51;100.00
23303;BME280;11820;48.738;9.092;2023-08-21T05:00:07;96816.41;;;23.67;100.00
23303;BME280;11820;48.738;9.092;2023-08-21T05:02:33;96816.38;;;23.57;100.00
23303;BME280;11820;48.738;9.092;2023-08-21T05:04:59;96814.25;;;23.49;100.00
23303;BME280;11820;48.738;9.092;2023-08-21T05:07:25;96821.94;;;23.56;100.00
23303;BME280;11820;48.738;9.092;2023-08-21T05:09:52;96819.06;;;23.62;100.00
23303;BME280;11820;48.738;9.092;2023-08-21T05:12:17;96828.28;;;23.65;100.00
23303;BME280;11820;48.738;9.092;2023-08-21T05:14:42;96830.16;;;23.69;100.00
23303;BME280;11820;48.738;9.092;2023-08-21T05:17:08;96831.22;;;23.78;100.00
23303;BME280;11820;48.738;9.092;2023-08-21T05:19:33;96834.41;;;23.85;100.00
23303;BME280;11820;48.738;9.092;2023-08-21T05:21:58;96830.16;;;23.74;100.00
23303;BME280;11820;48.738;9.092;2023-08-21T05:24:24;96831.25;;;23.83;100.00
23303;BME280;11820;48.738;9.092;2023-08-21T05:26:49;96840.22;;;23.82;100.00
23303;BME280;11820;48.738;9.092;2023-08-21T05:29:14;96838.66;;;23.86;100.00
23303;BME280;11820;48.738;9.092;2023-08-21T05:31:40;96838.94;;;23.90;100.00
23303;BME280;11820;48.738;9.092;2023-08-21T05:34:06;96841.84;;;23.98;100.00
23303;BME280;11820;48.738;9.092;2023-08-21T05:36:31;96836.31;;;24.05;100.00
23303;BME280;11820;48.738;9.092;2023-08-21T05:38:56;96835.25;;;24.06;100.00
23303;BME280;11820;48.738;9.092;2023-08-21T05:41:22;96842.41;;;24.20;100.00
23303;BME280;11820;48.738;9.092;2023-08-21T05:43:47;96838.16;;;24.24;100.00
23303;BME280;11820;48.738;9.092;2023-08-21T05:46:14;96847.16;;;24.23;100.00
23303;BME280;11820;48.738;9.092;2023-08-21T05:48:39;96853.78;;;24.26;100.00
23303;BME280;11820;48.738;9.092;2023-08-21T05:51:04;96850.31;;;24.25;100.00
23303;BME280;11820;48.738;9.092;2023-08-21T05:53:30;96843.97;;;24.26;100.00
23303;BME280;11820;48.738;9.092;2023-08-21T05:55:55;96842.38;;;24.35;100.00
23303;BME280;11820;48.738;9.092;2023-08-21T05:58:21;96846.09;;;24.44;100.00
23303;BME280;11820;48.738;9.092;2023-08-21T06:00:46;96843.97;;;24.56;100.00
23303;BME280;11820;48.738;9.092;2023-08-21T06:03:12;96848.22;;;24.67;100.00
23303;BME280;11820;48.738;9.092;2023-08-21T06:05:38;96841.59;;;24.65;100.00
23303;BME280;11820;48.738;9.092;2023-08-21T06:08:03;96845.00;;;24.75;100.00
23303;BME280;11820;48.738;9.092;2023-08-21T06:10:31;96848.16;;;24.82;100.00
23303;BME280;11820;48.738;9.092;2023-08-21T06:12:56;96843.91;;;24.86;100.00
23303;BME280;11820;48.738;9.092;2023-08-21T06:15:22;96847.91;;;24.88;100.00
23303;BME280;11820;48.738;9.092;2023-08-21T06:17:47;96849.47;;;24.94;100.00
23303;BME280;11820;48.738;9.092;2023-08-21T06:20:12;96847.59;;;25.00;100.00
23303;BME280;11820;48.738;9.092;2023-08-21T06:22:39;96855.50;;;25.10;100.00
23303;BME280;11820;48.738;9.092;2023-08-21T06:25:04;96854.44;;;25.26;100.00
23303;BME280;11820;48.738;9.092;2023-08-21T06:27:30;96855.22;;;25.31;100.00
23303;BME280;11820;48.738;9.092;2023-08-21T06:29:55;96849.63;;;25.33;100.00
23303;BME280;11820;48.738;9.092;2023-08-21T06:32:20;96853.81;;;25.44;100.00
23303;BME280;11820;48.738;9.092;2023-08-21T06:34:46;96857.03;;;25.41;100.00
23303;BME280;11820;48.738;9.092;2023-08-21T06:37:11;96859.94;;;25.39;100.00
23303;BME280;11820;48.738;9.092;2023-08-21T06:39:38;96852.44;;;25.51;100.00
23303;BME280;11820;48.738;9.092;2023-08-21T06:42:03;96858.81;;;25.55;100.00
23303;BME280;11820;48.738;9.092;2023-08-21T06:44:29;96855.06;;;25.61;100.00
23303;BME280;11820;48.738;9.092;2023-08-21T06:46:54;96862.53;;;25.54;100.00
23303;BME280;11820;48.738;9.092;2023-08-21T06:49:19;96862.22;;;25.61;100.00
23303;BME280;11820;48.738;9.092;2023-08-21T06:51:45;96861.66;;;25.69;100.00
23303;BME280;11820;48.738;9.092;2023-08-21T06:54:10;96860.28;;;25.71;100.00
23303;BME280;11820;48.738;9.092;2023-08-21T06:56:36;96858.44;;;25.72;100.00
23303;BME280;11820;48.738;9.092;2023-08-21T06:59:01;96871.41;;;25.73;100.00
23303;BME280;11820;48.738;9.092;2023-08-21T07:01:29;96864.75;;;25.86;100.00
23303;BME280;11820;48.738;9.092;2023-08-21T07:03:54;96870.56;;;25.93;100.00
23303;BME280;11820;48.738;9.092;2023-08-21T07:06:20;96872.38;;;25.97;100.00
23303;BME280;11820;48.738;9.092;2023-08-21T07:08:45;96870.47;;;26.03;100.00
23303;BME280;11820;48.738;9.092;2023-08-21T07:11:10;96870.19;;;26.09;100.00
23303;BME280;11820;48.738;9.092;2023-08-21T07:13:37;96872.06;;;26.04;100.00
23303;BME280;11820;48.738;9.092;2023-08-21T07:16:03;96876.81;;;26.07;100.00
23303;BME280;11820;48.738;9.092;2023-08-21T07:18:32;96871.25;;;26.03;100.00
23303;BME280;11820;48.738;9.092;2023-08-21T07:20:57;96873.34;;;26.11;100.00
23303;BME280;11820;48.738;9.092;2023-08-21T07:23:22;96875.34;;;26.29;100.00
23303;BME280;11820;48.738;9.092;2023-08-21T07:25:48;96872.34;;;26.36;100.00
23303;BME280;11820;48.738;9.092;2023-08-21T07:28:13;96874.75;;;26.37;100.00
23303;BME280;11820;48.738;9.092;2023-08-21T07:30:38;96875.50;;;26.43;100.00
23303;BME280;11820;48.738;9.092;2023-08-21T07:33:04;96870.41;;;26.46;100.00
23303;BME280;11820;48.738;9.092;2023-08-21T07:35:30;96878.66;;;26.45;100.00
23303;BME280;11820;48.738;9.092;2023-08-21T07:37:56;96872.84;;;26.48;100.00
23303;BME280;11820;48.738;9.092;2023-08-21T07:40:21;96878.34;;;26.51;100.00
23303;BME280;11820;48.738;9.092;2023-08-21T07:42:47;96878.22;;;26.66;100.00
23303;BME280;11820;48.738;9.092;2023-08-21T07:45:12;96871.47;;;26.78;100.00
23303;BME280;11820;48.738;9.092;2023-08-21T07:47:37;96884.75;;;26.78;100.00
23303;BME280;11820;48.738;9.092;2023-08-21T07:50:03;96883.06;;;26.87;100.00
23303;BME280;11820;48.738;9.092;2023-08-21T07:52:28;96880.34;;;26.92;100.00
23303;BME280;11820;48.738;9.092;2023-08-21T07:54:54;96889.88;;;26.98;100.00
23303;BME280;11820;48.738;9.092;2023-08-21T07:57:19;96887.16;;;27.03;100.00
23303;BME280;11820;48.738;9.092;2023-08-21T07:59:45;96887.06;;;27.13;100.00
23303;BME280;11820;48.738;9.092;2023-08-21T08:02:10;96885.41;;;27.22;100.00
23303;BME280;11820;48.738;9.092;2023-08-21T08:04:39;96889.53;;;27.52;100.00
23303;BME280;11820;48.738;9.092;2023-08-21T08:07:04;96889.50;;;27.57;100.00
23303;BME280;11820;48.738;9.092;2023-08-21T08:09:30;96886.97;;;27.65;100.00
23303;BME280;11820;48.738;9.092;2023-08-21T08:11:55;96889.78;;;27.55;100.00
23303;BME280;11820;48.738;9.092;2023-08-21T08:14:21;96890.91;;;27.73;100.00
23303;BME280;11820;48.738;9.092;2023-08-21T08:16:46;96884.81;;;27.72;100.00
23303;BME280;11820;48.738;9.092;2023-08-21T08:19:11;96892.41;;;27.79;100.00
23303;BME280;11820;48.738;9.092;2023-08-21T08:21:37;96891.72;;;27.92;100.00
23303;BME280;11820;48.738;9.092;2023-08-21T08:24:02;96882.22;;;28.04;100.00
23303;BME280;11820;48.738;9.092;2023-08-21T08:26:27;96884.09;;;28.22;100.00
23303;BME280;11820;48.738;9.092;2023-08-21T08:28:53;96886.19;;;28.25;100.00
23303;BME280;11820;48.738;9.092;2023-08-21T08:31:20;96885.69;;;28.42;100.00
23303;BME280;11820;48.738;9.092;2023-08-21T08:33:46;96891.13;;;28.50;100.00
23303;BME280;11820;48.738;9.092;2023-08-21T08:36:11;96881.72;;;28.39;100.00
23303;BME280;11820;48.738;9.092;2023-08-21T08:38:36;96884.75;;;28.33;100.00
23303;BME280;11820;48.738;9.092;2023-08-21T08:41:09;96882.31;;;28.36;100.00
23303;BME280;11820;48.738;9.092;2023-08-21T08:43:39;96890.34;;;28.49;100.00
23303;BME280;11820;48.738;9.092;2023-08-21T08:46:06;96887.97;;;28.48;100.00
23303;BME280;11820;48.738;9.092;2023-08-21T08:48:33;96882.69;;;28.61;100.00
23303;BME280;11820;48.738;9.092;2023-08-21T08:50:59;96887.22;;;28.61;100.00
23303;BME280;11820;48.738;9.092;2023-08-21T08:53:25;96880.31;;;28.60;100.00
23303;BME280;11820;48.738;9.092;2023-08-21T08:55:52;96885.25;;;28.66;100.00
23303;BME280;11820;48.738;9.092;2023-08-21T08:58:17;96894.75;;;28.41;100.00
23303;BME280;11820;48.738;9.092;2023-08-21T09:00:43;96890.78;;;28.38;100.00
23303;BME280;11820;48.738;9.092;2023-08-21T09:03:08;96893.72;;;28.55;100.00
23303;BME280;11820;48.738;9.092;2023-08-21T09:05:35;96891.31;;;28.53;100.00
23303;BME280;11820;48.738;9.092;2023-08-21T09:08:11;96886.44;;;28.60;100.00
23303;BME280;11820;48.738;9.092;2023-08-21T09:10:38;96881.59;;;28.62;100.00
23303;BME280;11820;48.738;9.092;2023-08-21T09:13:18;96891.81;;;28.74;100.00
23303;BME280;11820;48.738;9.092;2023-08-21T09:15:45;96886.22;;;28.57;100.00
23303;BME280;11820;48.738;9.092;2023-08-21T09:18:13;96886.16;;;28.75;100.00
23303;BME280;11820;48.738;9.092;2023-08-21T09:20:40;96890.00;;;28.69;100.00
23303;BME280;11820;48.738;9.092;2023-08-21T09:23:05;96883.78;;;28.92;100.00
23303;BME280;11820;48.738;9.092;2023-08-21T09:25:35;96886.06;;;28.99;100.00
23303;BME280;11820;48.738;9.092;2023-08-21T09:28:05;96883.56;;;29.02;100.00
23303;BME280;11820;48.738;9.092;2023-08-21T09:31:01;96883.97;;;29.09;100.00
23303;BME280;11820;48.738;9.092;2023-08-21T09:33:27;96883.41;;;29.12;100.00
23303;BME280;11820;48.738;9.092;2023-08-21T09:35:53;96878.84;;;29.13;100.00
23303;BME280;11820;48.738;9.092;2023-08-21T09:38:19;96885.59;;;29.24;100.00
23303;BME280;11820;48.738;9.092;2023-08-21T09:40:55;96883.09;;;29.27;100.00
23303;BME280;11820;48.738;9.092;2023-08-21T09:43:21;96881.53;;;29.40;100.00
23303;BME280;11820;48.738;9.092;2023-08-21T09:45:48;96881.72;;;29.30;100.00
23303;BME280;11820;48.738;9.092;2023-08-21T09:48:14;96885.41;;;29.47;100.00
23303;BME280;11820;48.738;9.092;2023-08-21T09:50:40;96879.94;;;29.66;100.00
23303;BME280;11820;48.738;9.092;2023-08-21T09:53:09;96876.69;;;29.69;100.00
23303;BME280;11820;48.738;9.092;2023-08-21T09:55:35;96879.63;;;29.81;100.00
23303;BME280;11820;48.738;9.092;2023-08-21T09:58:01;96874.25;;;29.94;100.00
23303;BME280;11820;48.738;9.092;2023-08-21T10:00:35;96875.84;;;29.95;100.00
23303;BME280;11820;48.738;9.092;2023-08-21T10:03:02;96870.38;;;30.00;100.00
23303;BME280;11820;48.738;9.092;2023-08-21T10:05:32;96872.88;;;29.83;100.00
23303;BME280;11820;48.738;9.092;2023-08-21T10:08:00;96869.47;;;30.18;100.00
23303;BME280;11820;48.738;9.092;2023-08-21T10:10:29;96871.97;;;30.36;100.00
23303;BME280;11820;48.738;9.092;2023-08-21T10:12:54;96864.69;;;30.50;100.00
23303;BME280;11820;48.738;9.092;2023-08-21T10:15:20;96862.22;;;30.84;100.00
23303;BME280;11820;48.738;9.092;2023-08-21T10:17:45;96861.81;;;31.30;100.00
23303;BME280;11820;48.738;9.092;2023-08-21T10:20:11;96853.63;;;31.26;100.00
23303;BME280;11820;48.738;9.092;2023-08-21T10:22:44;96851.84;;;31.13;100.00
23303;BME280;11820;48.738;9.092;2023-08-21T10:25:41;96850.00;;;31.22;100.00
23303;BME280;11820;48.738;9.092;2023-08-21T10:28:07;96845.41;;;31.14;100.00
23303;BME280;11820;48.738;9.092;2023-08-21T10:30:32;96838.44;;;30.74;100.00
23303;BME280;11820;48.738;9.092;2023-08-21T10:32:58;96844.09;;;30.73;100.00
23303;BME280;11820;48.738;9.092;2023-08-21T10:35:31;96844.81;;;30.95;100.00
23303;BME280;11820;48.738;9.092;2023-08-21T10:38:07;96832.94;;;31.10;100.00
23303;BME280;11820;48.738;9.092;2023-08-21T10:40:34;96834.41;;;31.24;100.00
23303;BME280;11820;48.738;9.092;2023-08-21T10:43:00;96834.59;;;31.28;100.00
23303;BME280;11820;48.738;9.092;2023-08-21T10:45:25;96835.50;;;31.71;100.00
23303;BME280;11820;48.738;9.092;2023-08-21T10:47:50;96836.47;;;31.83;100.00
23303;BME280;11820;48.738;9.092;2023-08-21T10:50:16;96834.56;;;31.92;100.00
23303;BME280;11820;48.738;9.092;2023-08-21T10:52:43;96831.25;;;32.37;100.00
23303;BME280;11820;48.738;9.092;2023-08-21T10:55:12;96834.13;;;32.24;100.00
23303;BME280;11820;48.738;9.092;2023-08-21T10:57:39;96832.38;;;32.28;100.00
23303;BME280;11820;48.738;9.092;2023-08-21T11:00:12;96832.38;;;32.11;100.00
23303;BME280;11820;48.738;9.092;2023-08-21T11:02:40;96838.03;;;32.01;100.00
23303;BME280;11820;48.738;9.092;2023-08-21T11:05:07;96825.28;;;32.06;100.00
23303;BME280;11820;48.738;9.092;2023-08-21T11:07:46;96828.41;;;31.66;100.00
23303;BME280;11820;48.738;9.092;2023-08-21T11:10:17;96828.34;;;31.41;100.00
23303;BME280;11820;48.738;9.092;2023-08-21T11:15:17;96827.88;;;31.47;100.00
23303;BME280;11820;48.738;9.092;2023-08-21T11:18:00;96829.31;;;31.62;100.00
23303;BME280;11820;48.738;9.092;2023-08-21T11:20:30;96827.66;;;31.91;100.00
23303;BME280;11820;48.738;9.092;2023-08-21T11:22:57;96837.25;;;31.84;100.00
23303;BME280;11820;48.738;9.092;2023-08-21T11:25:22;96832.53;;;31.81;100.00
23303;BME280;11820;48.738;9.092;2023-08-21T11:27:48;96835.56;;;32.30;99.45
23303;BME280;11820;48.738;9.092;2023-08-21T11:30:13;96829.19;;;32.60;100.00
23303;BME280;11820;48.738;9.092;2023-08-21T11:32:39;96830.91;;;32.64;99.52
23303;BME280;11820;48.738;9.092;2023-08-21T11:35:04;96829.78;;;32.65;98.46
23303;BME280;11820;48.738;9.092;2023-08-21T11:37:29;96828.09;;;32.52;95.35
23303;BME280;11820;48.738;9.092;2023-08-21T11:39:56;96826.13;;;32.95;95.90
23303;BME280;11820;48.738;9.092;2023-08-21T11:42:32;96825.28;;;33.41;95.01
23303;BME280;11820;48.738;9.092;2023-08-21T11:44:59;96819.59;;;33.71;92.60
23303;BME280;11820;48.738;9.092;2023-08-21T11:47:33;96817.41;;;32.98;92.62
23303;BME280;11820;48.738;9.092;2023-08-21T11:50:04;96811.09;;;33.61;89.82
23303;BME280;11820;48.738;9.092;2023-08-21T11:52:31;96810.34;;;34.21;89.98
23303;BME280;11820;48.738;9.092;2023-08-21T11:55:07;96802.97;;;34.30;88.24
23303;BME280;11820;48.738;9.092;2023-08-21T11:57:33;96817.28;;;34.99;83.45
23303;BME280;11820;48.738;9.092;2023-08-21T11:59:58;96812.91;;;36.45;80.06
23303;BME280;11820;48.738;9.092;2023-08-21T12:02:28;96814.06;;;34.61;81.09
23303;BME280;11820;48.738;9.092;2023-08-21T12:04:58;96801.13;;;33.41;83.65
23303;BME280;11820;48.738;9.092;2023-08-21T12:07:25;96809.38;;;33.85;82.93
23303;BME280;11820;48.738;9.092;2023-08-21T12:09:51;96802.78;;;38.57;79.17
23303;BME280;11820;48.738;9.092;2023-08-21T12:12:16;96802.47;;;41.16;57.29
23303;BME280;11820;48.738;9.092;2023-08-21T12:14:42;96812.66;;;37.09;61.78
23303;BME280;11820;48.738;9.092;2023-08-21T12:17:07;96802.72;;;35.12;68.06
23303;BME280;11820;48.738;9.092;2023-08-21T12:19:32;96807.75;;;34.78;69.22
23303;BME280;11820;48.738;9.092;2023-08-21T12:21:58;96811.59;;;36.00;67.80
23303;BME280;11820;48.738;9.092;2023-08-21T12:24:24;96796.63;;;44.79;49.53
23303;BME280;11820;48.738;9.092;2023-08-21T12:26:49;96802.81;;;49.75;38.67
23303;BME280;11820;48.738;9.092;2023-08-21T12:29:14;96802.56;;;50.89;34.75
23303;BME280;11820;48.738;9.092;2023-08-21T12:31:40;96797.66;;;53.11;32.60
23303;BME280;11820;48.738;9.092;2023-08-21T12:34:05;96787.75;;;52.62;30.58
23303;BME280;11820;48.738;9.092;2023-08-21T12:36:30;96792.28;;;54.74;28.73
23303;BME280;11820;48.738;9.092;2023-08-21T12:38:56;96789.38;;;56.39;27.70
23303;BME280;11820;48.738;9.092;2023-08-21T12:41:21;96789.19;;;46.04;34.71
23303;BME280;11820;48.738;9.092;2023-08-21T12:43:46;96790.53;;;41.85;40.69
23303;BME280;11820;48.738;9.092;2023-08-21T12:46:13;96780.34;;;43.41;41.42
23303;BME280;11820;48.738;9.092;2023-08-21T12:48:38;96781.06;;;46.31;35.79